sensor_id;sensor_type;location;lat;lon;timestamp;temperature;humidity
48376;DHT22;34178;50.904;11.560;2023-08-06T00:00:16;16.40;99.90
48376;DHT22;34178;50.904;11.560;2023-08-06T00:02:42;16.40;99.90
48376;DHT22;34178;50.904;11.560;2023-08-06T00:05:07;16.40;99.90
48376;DHT22;34178;50.904;11.560;2023-08-06T00:07:33;16.40;99.90
48376;DHT22;34178;50.904;11.560;2023-08-06T00:09:59;16.40;99.90
48376;DHT22;34178;50.904;11.560;2023-08-06T00:12:24;16.30;99.90
48376;DHT22;34178;50.904;11.560;2023-08-06T00:14:51;16.30;99.90
48376;DHT22;34178;50.904;11.560;2023-08-06T00:17:17;16.30;99.90
48376;DHT22;34178;50.904;11.560;2023-08-06T00:19:43;16.20;99.90
48376;DHT22;34178;50.904;11.560;2023-08-06T00:22:08;16.20;99.90
48376;DHT22;34178;50.904;11.560;2023-08-06T00:24:34;16.10;99.90
48376;DHT22;34178;50.904;11.560;2023-08-06T00:27:00;16.10;99.90
48376;DHT22;34178;50.904;11.560;2023-08-06T00:29:26;16.10;99.90
48376;DHT22;34178;50.904;11.560;2023-08-06T00:31:52;16.00;99.90
48376;DHT22;34178;50.904;11.560;2023-08-06T00:34:17;16.00;99.90
48376;DHT22;34178;50.904;11.560;2023-08-06T00:36:43;15.90;99.90
48376;DHT22;34178;50.904;11.560;2023-08-06T00:39:09;15.70;99.90
48376;DHT22;34178;50.904;11.560;2023-08-06T00:41:34;15.60;99.90
48376;DHT22;34178;50.904;11.560;2023-08-06T00:44:00;15.60;99.90
48376;DHT22;34178;50.904;11.560;2023-08-06T00:46:26;15.60;99.90
48376;DHT22;34178;50.904;11.560;2023-08-06T00:48:52;15.60;99.90
48376;DHT22;34178;50.904;11.560;2023-08-06T00:51:19;15.60;99.90
48376;DHT22;34178;50.904;11.560;2023-08-06T00:53:46;15.60;99.90
48376;DHT22;34178;50.904;11.560;2023-08-06T00:56:13;15.60;99.90
48376;DHT22;34178;50.904;11.560;2023-08-06T00:58:39;15.50;99.90
48376;DHT22;34178;50.904;11.560;2023-08-06T01:01:05;15.50;99.90
48376;DHT22;34178;50.904;11.560;2023-08-06T01:03:31;15.50;99.90
48376;DHT22;34178;50.904;11.560;2023-08-06T01:05:57;15.50;99.90
48376;DHT22;34178;50.904;11.560;2023-08-06T01:13:43;15.50;99.90
48376;DHT22;34178;50.904;11.560;2023-08-06T01:16:15;15.50;99.90
48376;DHT22;34178;50.904;11.560;2023-08-06T01:18:40;15.40;99.90
48376;DHT22;34178;50.904;11.560;2023-08-06T01:21:07;15.40;99.90
48376;DHT22;34178;50.904;11.560;2023-08-06T01:23:33;15.30;99.90
48376;DHT22;34178;50.904;11.560;2023-08-06T01:31:13;15.20;99.90
48376;DHT22;34178;50.904;11.560;2023-08-06T01:33:41;15.20;99.90
48376;DHT22;34178;50.904;11.560;2023-08-06T01:36:09;15.30;99.90
48376;DHT22;34178;50.904;11.560;2023-08-06T01:38:35;15.30;99.90
48376;DHT22;34178;50.904;11.560;2023-08-06T01:41:00;15.20;99.90
48376;DHT22;34178;50.904;11.560;2023-08-06T01:43:26;15.20;99.90
48376;DHT22;34178;50.904;11.560;2023-08-06T01:45:52;15.10;99.90
48376;DHT22;34178;50.904;11.560;2023-08-06T01:48:17;15.10;99.90
48376;DHT22;34178;50.904;11.560;2023-08-06T01:50:43;15.10;99.90
48376;DHT22;34178;50.904;11.560;2023-08-06T01:53:09;15.10;99.90
48376;DHT22;34178;50.904;11.560;2023-08-06T01:55:34;15.20;99.90
48376;DHT22;34178;50.904;11.560;2023-08-06T01:58:00;15.10;99.90
48376;DHT22;34178;50.904;11.560;2023-08-06T02:00:26;15.00;99.90
48376;DHT22;34178;50.904;11.560;2023-08-06T02:02:53;15.00;99.90
48376;DHT22;34178;50.904;11.560;2023-08-06T02:05:19;15.00;99.90
48376;DHT22;34178;50.904;11.560;2023-08-06T02:07:44;15.00;99.90
48376;DHT22;34178;50.904;11.560;2023-08-06T02:10:10;15.00;99.90
48376;DHT22;34178;50.904;11.560;2023-08-06T02:12:35;15.00;99.90
48376;DHT22;34178;50.904;11.560;2023-08-06T02:15:01;15.00;99.90
48376;DHT22;34178;50.904;11.560;2023-08-06T02:17:27;15.10;99.90
48376;DHT22;34178;50.904;11.560;2023-08-06T02:19:53;15.10;99.90
48376;DHT22;34178;50.904;11.560;2023-08-06T02:22:18;15.10;99.90
48376;DHT22;34178;50.904;11.560;2023-08-06T02:24:44;15.10;99.90
48376;DHT22;34178;50.904;11.560;2023-08-06T02:27:10;15.00;99.90
48376;DHT22;34178;50.904;11.560;2023-08-06T02:29:35;15.00;99.90
48376;DHT22;34178;50.904;11.560;2023-08-06T02:32:01;14.90;99.90
48376;DHT22;34178;50.904;11.560;2023-08-06T02:34:27;14.90;99.90
48376;DHT22;34178;50.904;11.560;2023-08-06T02:36:53;14.90;99.90
48376;DHT22;34178;50.904;11.560;2023-08-06T02:39:19;14.90;99.90
48376;DHT22;34178;50.904;11.560;2023-08-06T02:41:45;14.90;99.90
48376;DHT22;34178;50.904;11.560;2023-08-06T02:44:10;14.90;99.90
48376;DHT22;34178;50.904;11.560;2023-08-06T02:46:36;14.80;99.90
48376;DHT22;34178;50.904;11.560;2023-08-06T02:49:01;14.80;99.90
48376;DHT22;34178;50.904;11.560;2023-08-06T02:51:27;14.80;99.90
48376;DHT22;34178;50.904;11.560;2023-08-06T02:53:53;14.80;99.90
48376;DHT22;34178;50.904;11.560;2023-08-06T02:56:18;14.80;99.90
48376;DHT22;34178;50.904;11.560;2023-08-06T02:58:44;14.90;99.90
48376;DHT22;34178;50.904;11.560;2023-08-06T03:01:10;14.90;99.90
48376;DHT22;34178;50.904;11.560;2023-08-06T03:03:36;14.90;99.90
48376;DHT22;34178;50.904;11.560;2023-08-06T03:06:01;14.90;99.90
48376;DHT22;34178;50.904;11.560;2023-08-06T03:08:27;14.80;99.90
48376;DHT22;34178;50.904;11.560;2023-08-06T03:10:53;14.90;99.90
48376;DHT22;34178;50.904;11.560;2023-08-06T03:13:19;15.00;99.90
48376;DHT22;34178;50.904;11.560;2023-08-06T03:15:55;15.00;99.90
48376;DHT22;34178;50.904;11.560;2023-08-06T03:18:21;15.00;99.90
48376;DHT22;34178;50.904;11.560;2023-08-06T03:20:47;14.90;99.90
48376;DHT22;34178;50.904;11.560;2023-08-06T03:23:12;15.00;99.90
48376;DHT22;34178;50.904;11.560;2023-08-06T03:25:38;14.90;99.90
48376;DHT22;34178;50.904;11.560;2023-08-06T03:28:04;14.90;99.90
48376;DHT22;34178;50.904;11.560;2023-08-06T03:30:29;14.90;99.90
48376;DHT22;34178;50.904;11.560;2023-08-06T03:32:55;14.80;99.90
48376;DHT22;34178;50.904;11.560;2023-08-06T03:35:21;14.80;99.90
48376;DHT22;34178;50.904;11.560;2023-08-06T03:37:46;14.80;99.90
48376;DHT22;34178;50.904;11.560;2023-08-06T03:40:12;14.90;99.90
48376;DHT22;34178;50.904;11.560;2023-08-06T03:42:38;14.90;99.90
48376;DHT22;34178;50.904;11.560;2023-08-06T03:45:04;15.00;99.90
48376;DHT22;34178;50.904;11.560;2023-08-06T03:47:30;14.90;99.90
48376;DHT22;34178;50.904;11.560;2023-08-06T03:49:55;15.00;99.90
48376;DHT22;34178;50.904;11.560;2023-08-06T03:52:22;14.90;99.90
48376;DHT22;34178;50.904;11.560;2023-08-06T03:54:47;14.80;99.90
48376;DHT22;34178;50.904;11.560;2023-08-06T03:57:13;14.80;99.90
48376;DHT22;34178;50.904;11.560;2023-08-06T03:59:39;14.80;99.90
48376;DHT22;34178;50.904;11.560;2023-08-06T04:02:04;14.70;99.90
48376;DHT22;34178;50.904;11.560;2023-08-06T04:04:30;14.80;99.90
48376;DHT22;34178;50.904;11.560;2023-08-06T04:06:56;14.80;99.90
48376;DHT22;34178;50.904;11.560;2023-08-06T04:09:21;14.80;99.90
48376;DHT22;34178;50.904;11.560;2023-08-06T04:11:47;14.70;99.90
48376;DHT22;34178;50.904;11.560;2023-08-06T04:14:13;14.80;99.90
48376;DHT22;34178;50.904;11.560;2023-08-06T04:16:38;14.80;99.90
48376;DHT22;34178;50.904;11.560;2023-08-06T04:19:04;14.80;99.90
48376;DHT22;34178;50.904;11.560;2023-08-06T04:21:30;14.90;99.90
48376;DHT22;34178;50.904;11.560;2023-08-06T04:23:56;14.80;99.90
48376;DHT22;34178;50.904;11.560;2023-08-06T04:26:22;14.80;99.90
48376;DHT22;34178;50.904;11.560;2023-08-06T04:28:48;14.80;99.90
48376;DHT22;34178;50.904;11.560;2023-08-06T04:31:14;14.80;99.90
48376;DHT22;34178;50.904;11.560;2023-08-06T04:33:40;14.80;99.90
48376;DHT22;34178;50.904;11.560;2023-08-06T04:36:06;14.90;99.90
48376;DHT22;34178;50.904;11.560;2023-08-06T04:38:32;14.90;99.90
48376;DHT22;34178;50.904;11.560;2023-08-06T04:40:58;14.90;99.90
48376;DHT22;34178;50.904;11.560;2023-08-06T04:43:24;14.90;99.90
48376;DHT22;34178;50.904;11.560;2023-08-06T04:45:50;14.90;99.90
48376;DHT22;34178;50.904;11.560;2023-08-06T04:48:17;14.80;99.90
48376;DHT22;34178;50.904;11.560;2023-08-06T04:50:46;14.80;99.90
48376;DHT22;34178;50.904;11.560;2023-08-06T04:53:12;14.90;99.90
48376;DHT22;34178;50.904;11.560;2023-08-06T04:55:38;14.90;99.90
48376;DHT22;34178;50.904;11.560;2023-08-06T04:58:04;14.90;99.90
48376;DHT22;34178;50.904;11.560;2023-08-06T05:00:30;15.00;99.90
48376;DHT22;34178;50.904;11.560;2023-08-06T05:02:56;15.00;99.90
48376;DHT22;34178;50.904;11.560;2023-08-06T05:05:22;15.00;99.90
48376;DHT22;34178;50.904;11.560;2023-08-06T05:07:49;15.00;99.90
48376;DHT22;34178;50.904;11.560;2023-08-06T05:10:15;15.10;99.90
48376;DHT22;34178;50.904;11.560;2023-08-06T05:12:41;15.10;99.90
48376;DHT22;34178;50.904;11.560;2023-08-06T05:15:07;15.20;99.90
48376;DHT22;34178;50.904;11.560;2023-08-06T05:17:33;15.10;99.90
48376;DHT22;34178;50.904;11.560;2023-08-06T05:19:59;15.20;99.90
48376;DHT22;34178;50.904;11.560;2023-08-06T05:22:25;15.30;99.90
48376;DHT22;34178;50.904;11.560;2023-08-06T05:24:51;15.30;99.90
48376;DHT22;34178;50.904;11.560;2023-08-06T05:27:17;15.20;99.90
48376;DHT22;34178;50.904;11.560;2023-08-06T05:29:45;15.30;99.90
48376;DHT22;34178;50.904;11.560;2023-08-06T05:32:10;15.30;99.90
48376;DHT22;34178;50.904;11.560;2023-08-06T05:34:36;15.40;99.90
48376;DHT22;34178;50.904;11.560;2023-08-06T05:37:03;15.40;99.90
48376;DHT22;34178;50.904;11.560;2023-08-06T05:39:29;15.40;99.90
48376;DHT22;34178;50.904;11.560;2023-08-06T05:41:54;15.40;99.90
48376;DHT22;34178;50.904;11.560;2023-08-06T05:44:21;15.50;99.90
48376;DHT22;34178;50.904;11.560;2023-08-06T05:46:47;15.50;99.90
48376;DHT22;34178;50.904;11.560;2023-08-06T05:49:12;15.40;99.90
48376;DHT22;34178;50.904;11.560;2023-08-06T05:51:39;15.40;99.90
48376;DHT22;34178;50.904;11.560;2023-08-06T05:54:05;15.50;99.90
48376;DHT22;34178;50.904;11.560;2023-08-06T05:56:30;15.60;99.90
48376;DHT22;34178;50.904;11.560;2023-08-06T05:58:56;15.70;99.90
48376;DHT22;34178;50.904;11.560;2023-08-06T06:01:22;15.60;99.90
48376;DHT22;34178;50.904;11.560;2023-08-06T06:03:48;15.60;99.90
48376;DHT22;34178;50.904;11.560;2023-08-06T06:06:14;15.60;99.90
48376;DHT22;34178;50.904;11.560;2023-08-06T06:08:40;15.80;99.90
48376;DHT22;34178;50.904;11.560;2023-08-06T06:11:06;15.90;99.90
48376;DHT22;34178;50.904;11.560;2023-08-06T06:13:31;16.00;99.90
48376;DHT22;34178;50.904;11.560;2023-08-06T06:15:57;16.10;99.90
48376;DHT22;34178;50.904;11.560;2023-08-06T06:18:23;16.20;99.90
48376;DHT22;34178;50.904;11.560;2023-08-06T06:20:48;16.20;99.90
48376;DHT22;34178;50.904;11.560;2023-08-06T06:23:14;16.20;99.90
48376;DHT22;34178;50.904;11.560;2023-08-06T06:25:46;16.20;99.90
48376;DHT22;34178;50.904;11.560;2023-08-06T06:28:12;16.30;99.90
48376;DHT22;34178;50.904;11.560;2023-08-06T06:30:38;16.40;99.90
48376;DHT22;34178;50.904;11.560;2023-08-06T06:33:03;16.50;99.90
48376;DHT22;34178;50.904;11.560;2023-08-06T06:35:29;16.50;99.90
48376;DHT22;34178;50.904;11.560;2023-08-06T06:37:55;16.60;99.90
48376;DHT22;34178;50.904;11.560;2023-08-06T06:40:20;16.70;99.90
48376;DHT22;34178;50.904;11.560;2023-08-06T06:42:46;16.80;99.90
48376;DHT22;34178;50.904;11.560;2023-08-06T06:45:12;16.90;99.90
48376;DHT22;34178;50.904;11.560;2023-08-06T06:47:37;17.00;99.90
48376;DHT22;34178;50.904;11.560;2023-08-06T06:50:03;17.10;99.90
48376;DHT22;34178;50.904;11.560;2023-08-06T06:52:29;17.20;99.90
48376;DHT22;34178;50.904;11.560;2023-08-06T06:54:55;17.30;99.90
48376;DHT22;34178;50.904;11.560;2023-08-06T06:57:21;17.30;99.90
48376;DHT22;34178;50.904;11.560;2023-08-06T06:59:46;17.40;99.90
48376;DHT22;34178;50.904;11.560;2023-08-06T07:02:12;17.50;99.90
48376;DHT22;34178;50.904;11.560;2023-08-06T07:04:38;17.60;99.90
48376;DHT22;34178;50.904;11.560;2023-08-06T07:07:03;17.60;99.90
48376;DHT22;34178;50.904;11.560;2023-08-06T07:09:29;17.70;99.90
48376;DHT22;34178;50.904;11.560;2023-08-06T07:11:55;17.80;99.90
48376;DHT22;34178;50.904;11.560;2023-08-06T07:14:20;17.70;99.90
48376;DHT22;34178;50.904;11.560;2023-08-06T07:16:46;17.70;99.90
48376;DHT22;34178;50.904;11.560;2023-08-06T07:19:12;17.80;99.90
48376;DHT22;34178;50.904;11.560;2023-08-06T07:21:37;17.90;99.90
48376;DHT22;34178;50.904;11.560;2023-08-06T07:24:03;18.00;99.90
48376;DHT22;34178;50.904;11.560;2023-08-06T07:26:29;18.10;99.90
48376;DHT22;34178;50.904;11.560;2023-08-06T07:28:54;18.20;99.90
48376;DHT22;34178;50.904;11.560;2023-08-06T07:31:20;18.20;99.90
48376;DHT22;34178;50.904;11.560;2023-08-06T07:33:46;18.20;99.90
48376;DHT22;34178;50.904;11.560;2023-08-06T07:36:13;18.30;99.90
48376;DHT22;34178;50.904;11.560;2023-08-06T07:38:39;18.40;99.90
48376;DHT22;34178;50.904;11.560;2023-08-06T07:41:05;18.40;99.90
48376;DHT22;34178;50.904;11.560;2023-08-06T07:43:31;18.50;99.90
48376;DHT22;34178;50.904;11.560;2023-08-06T07:46:00;18.70;99.90
48376;DHT22;34178;50.904;11.560;2023-08-06T07:48:27;18.80;99.90
48376;DHT22;34178;50.904;11.560;2023-08-06T07:50:55;18.90;99.90
48376;DHT22;34178;50.904;11.560;2023-08-06T07:53:22;18.90;99.90
48376;DHT22;34178;50.904;11.560;2023-08-06T07:55:52;19.00;99.90
48376;DHT22;34178;50.904;11.560;2023-08-06T07:58:18;19.00;99.90
48376;DHT22;34178;50.904;11.560;2023-08-06T08:00:44;19.10;99.90
48376;DHT22;34178;50.904;11.560;2023-08-06T08:03:11;19.20;99.90
48376;DHT22;34178;50.904;11.560;2023-08-06T08:05:39;19.40;99.90
48376;DHT22;34178;50.904;11.560;2023-08-06T08:08:05;19.60;99.90
48376;DHT22;34178;50.904;11.560;2023-08-06T08:10:31;19.60;99.90
48376;DHT22;34178;50.904;11.560;2023-08-06T08:12:57;19.40;99.90
48376;DHT22;34178;50.904;11.560;2023-08-06T08:15:24;19.30;99.90
48376;DHT22;34178;50.904;11.560;2023-08-06T08:17:53;19.50;99.90
48376;DHT22;34178;50.904;11.560;2023-08-06T08:20:19;19.70;99.90
48376;DHT22;34178;50.904;11.560;2023-08-06T08:22:44;19.70;99.90
48376;DHT22;34178;50.904;11.560;2023-08-06T08:25:10;19.70;99.90
48376;DHT22;34178;50.904;11.560;2023-08-06T08:27:36;19.70;99.90
48376;DHT22;34178;50.904;11.560;2023-08-06T08:30:01;19.70;99.90
48376;DHT22;34178;50.904;11.560;2023-08-06T08:32:27;19.70;99.90
48376;DHT22;34178;50.904;11.560;2023-08-06T08:34:53;19.80;99.90
48376;DHT22;34178;50.904;11.560;2023-08-06T08:37:19;19.80;99.90
48376;DHT22;34178;50.904;11.560;2023-08-06T08:39:44;19.90;99.90
48376;DHT22;34178;50.904;11.560;2023-08-06T08:42:10;20.00;99.90
48376;DHT22;34178;50.904;11.560;2023-08-06T08:44:37;19.90;99.90
48376;DHT22;34178;50.904;11.560;2023-08-06T08:47:08;20.00;99.90
48376;DHT22;34178;50.904;11.560;2023-08-06T08:49:35;19.90;99.90
48376;DHT22;34178;50.904;11.560;2023-08-06T08:52:03;20.00;99.90
48376;DHT22;34178;50.904;11.560;2023-08-06T08:54:33;20.00;99.90
48376;DHT22;34178;50.904;11.560;2023-08-06T08:56:59;20.00;99.90
48376;DHT22;34178;50.904;11.560;2023-08-06T08:59:27;20.00;99.90
48376;DHT22;34178;50.904;11.560;2023-08-06T09:01:54;20.10;99.90
48376;DHT22;34178;50.904;11.560;2023-08-06T09:04:21;20.10;99.90
48376;DHT22;34178;50.904;11.560;2023-08-06T09:06:52;20.20;99.90
48376;DHT22;34178;50.904;11.560;2023-08-06T09:09:30;20.30;99.90
48376;DHT22;34178;50.904;11.560;2023-08-06T09:12:00;20.30;99.90
48376;DHT22;34178;50.904;11.560;2023-08-06T09:14:27;20.20;99.90
48376;DHT22;34178;50.904;11.560;2023-08-06T09:16:54;20.20;99.90
48376;DHT22;34178;50.904;11.560;2023-08-06T09:19:20;20.20;99.90
48376;DHT22;34178;50.904;11.560;2023-08-06T09:21:46;20.30;99.90
48376;DHT22;34178;50.904;11.560;2023-08-06T09:24:15;20.40;99.90
48376;DHT22;34178;50.904;11.560;2023-08-06T09:26:45;20.40;99.90
48376;DHT22;34178;50.904;11.560;2023-08-06T09:29:11;20.50;99.90
48376;DHT22;34178;50.904;11.560;2023-08-06T09:31:44;20.50;99.90
48376;DHT22;34178;50.904;11.560;2023-08-06T09:34:18;20.60;99.90
48376;DHT22;34178;50.904;11.560;2023-08-06T09:36:51;20.70;99.90
48376;DHT22;34178;50.904;11.560;2023-08-06T09:39:18;20.80;99.90
48376;DHT22;34178;50.904;11.560;2023-08-06T09:41:45;20.80;99.90
48376;DHT22;34178;50.904;11.560;2023-08-06T09:44:18;20.90;99.90
48376;DHT22;34178;50.904;11.560;2023-08-06T09:46:54;21.10;99.90
48376;DHT22;34178;50.904;11.560;2023-08-06T09:49:25;21.40;99.90
48376;DHT22;34178;50.904;11.560;2023-08-06T09:51:51;21.70;99.90
48376;DHT22;34178;50.904;11.560;2023-08-06T09:54:19;21.90;99.90
48376;DHT22;34178;50.904;11.560;2023-08-06T09:56:45;21.90;99.90
48376;DHT22;34178;50.904;11.560;2023-08-06T09:59:10;21.80;99.90
48376;DHT22;34178;50.904;11.560;2023-08-06T10:01:39;21.70;99.90
48376;DHT22;34178;50.904;11.560;2023-08-06T10:04:06;21.60;99.90
48376;DHT22;34178;50.904;11.560;2023-08-06T10:06:37;21.50;99.90
48376;DHT22;34178;50.904;11.560;2023-08-06T10:09:03;21.30;99.90
48376;DHT22;34178;50.904;11.560;2023-08-06T10:11:30;21.20;99.90
48376;DHT22;34178;50.904;11.560;2023-08-06T10:14:08;21.20;99.90
48376;DHT22;34178;50.904;11.560;2023-08-06T10:16:35;21.30;99.90
48376;DHT22;34178;50.904;11.560;2023-08-06T10:19:04;21.30;99.90
48376;DHT22;34178;50.904;11.560;2023-08-06T10:21:31;21.50;99.90
48376;DHT22;34178;50.904;11.560;2023-08-06T10:23:57;21.50;99.90
48376;DHT22;34178;50.904;11.560;2023-08-06T10:26:29;21.70;99.90
48376;DHT22;34178;50.904;11.560;2023-08-06T10:28:56;21.80;99.90
48376;DHT22;34178;50.904;11.560;2023-08-06T10:31:55;21.70;99.90
48376;DHT22;34178;50.904;11.560;2023-08-06T10:34:21;21.50;99.90
48376;DHT22;34178;50.904;11.560;2023-08-06T10:36:46;21.40;99.90
48376;DHT22;34178;50.904;11.560;2023-08-06T10:39:15;21.30;99.90
48376;DHT22;34178;50.904;11.560;2023-08-06T10:41:42;21.20;99.90
48376;DHT22;34178;50.904;11.560;2023-08-06T10:44:10;21.10;99.90
48376;DHT22;34178;50.904;11.560;2023-08-06T10:46:37;21.20;99.90
48376;DHT22;34178;50.904;11.560;2023-08-06T10:49:03;21.50;99.90
48376;DHT22;34178;50.904;11.560;2023-08-06T10:51:33;21.80;99.90
48376;DHT22;34178;50.904;11.560;2023-08-06T10:53:59;22.00;99.90
48376;DHT22;34178;50.904;11.560;2023-08-06T10:56:25;22.10;99.90
48376;DHT22;34178;50.904;11.560;2023-08-06T10:58:55;22.10;99.90
48376;DHT22;34178;50.904;11.560;2023-08-06T11:01:26;22.00;99.90
48376;DHT22;34178;50.904;11.560;2023-08-06T11:03:54;22.00;99.90
48376;DHT22;34178;50.904;11.560;2023-08-06T11:06:21;22.00;99.90
48376;DHT22;34178;50.904;11.560;2023-08-06T11:08:53;22.00;99.90
48376;DHT22;34178;50.904;11.560;2023-08-06T11:11:19;21.90;99.90
48376;DHT22;34178;50.904;11.560;2023-08-06T11:13:47;21.90;99.90
48376;DHT22;34178;50.904;11.560;2023-08-06T11:16:14;22.00;99.90
48376;DHT22;34178;50.904;11.560;2023-08-06T11:18:44;22.10;99.90
48376;DHT22;34178;50.904;11.560;2023-08-06T11:21:10;22.20;99.90
48376;DHT22;34178;50.904;11.560;2023-08-06T11:23:37;22.30;99.90
48376;DHT22;34178;50.904;11.560;2023-08-06T11:26:03;22.50;99.90
48376;DHT22;34178;50.904;11.560;2023-08-06T11:28:29;22.80;99.90
48376;DHT22;34178;50.904;11.560;2023-08-06T11:30:55;22.80;99.90
48376;DHT22;34178;50.904;11.560;2023-08-06T11:33:25;22.70;99.90
48376;DHT22;34178;50.904;11.560;2023-08-06T11:35:52;22.60;99.90
48376;DHT22;34178;50.904;11.560;2023-08-06T11:38:17;22.50;99.90
48376;DHT22;34178;50.904;11.560;2023-08-06T11:40:47;22.30;99.90
48376;DHT22;34178;50.904;11.560;2023-08-06T11:43:13;22.30;99.90
48376;DHT22;34178;50.904;11.560;2023-08-06T11:45:40;22.20;99.90
48376;DHT22;34178;50.904;11.560;2023-08-06T11:48:06;22.30;99.90
48376;DHT22;34178;50.904;11.560;2023-08-06T11:50:36;22.30;99.90
48376;DHT22;34178;50.904;11.560;2023-08-06T11:53:04;22.30;99.90
48376;DHT22;34178;50.904;11.560;2023-08-06T11:55:29;22.20;99.90
48376;DHT22;34178;50.904;11.560;2023-08-06T11:57:55;22.20;99.90
48376;DHT22;34178;50.904;11.560;2023-08-06T12:00:24;22.00;99.90
48376;DHT22;34178;50.904;11.560;2023-08-06T12:02:50;21.90;99.90
48376;DHT22;34178;50.904;11.560;2023-08-06T12:05:21;22.00;99.90
48376;DHT22;34178;50.904;11.560;2023-08-06T12:07:54;22.20;99.90
48376;DHT22;34178;50.904;11.560;2023-08-06T12:10:21;22.30;99.90
48376;DHT22;34178;50.904;11.560;2023-08-06T12:12:47;22.50;99.90
48376;DHT22;34178;50.904;11.560;2023-08-06T12:15:14;22.90;99.90
48376;DHT22;34178;50.904;11.560;2023-08-06T12:17:40;23.30;99.90
48376;DHT22;34178;50.904;11.560;2023-08-06T12:20:06;23.40;99.90
48376;DHT22;34178;50.904;11.560;2023-08-06T12:22:33;23.40;99.90
48376;DHT22;34178;50.904;11.560;2023-08-06T12:25:07;23.10;99.90
48376;DHT22;34178;50.904;11.560;2023-08-06T12:27:34;22.80;99.90
48376;DHT22;34178;50.904;11.560;2023-08-06T12:30:00;22.40;99.90
48376;DHT22;34178;50.904;11.560;2023-08-06T12:32:26;22.20;99.90
48376;DHT22;34178;50.904;11.560;2023-08-06T12:34:52;22.00;99.90
48376;DHT22;34178;50.904;11.560;2023-08-06T12:37:17;21.90;99.90
48376;DHT22;34178;50.904;11.560;2023-08-06T12:39:43;21.90;99.90
48376;DHT22;34178;50.904;11.560;2023-08-06T12:42:09;21.90;99.90
48376;DHT22;34178;50.904;11.560;2023-08-06T12:44:36;21.90;99.90
48376;DHT22;34178;50.904;11.560;2023-08-06T12:47:01;21.50;99.90
48376;DHT22;34178;50.904;11.560;2023-08-06T12:49:27;21.40;99.90
48376;DHT22;34178;50.904;11.560;2023-08-06T12:51:54;21.50;99.90
48376;DHT22;34178;50.904;11.560;2023-08-06T12:54:22;21.80;99.90
48376;DHT22;34178;50.904;11.560;2023-08-06T12:56:47;22.50;99.90
48376;DHT22;34178;50.904;11.560;2023-08-06T12:59:14;23.60;99.90
48376;DHT22;34178;50.904;11.560;2023-08-06T13:01:41;25.50;99.90
48376;DHT22;34178;50.904;11.560;2023-08-06T13:04:06;27.30;98.80
48376;DHT22;34178;50.904;11.560;2023-08-06T13:06:32;28.90;97.20
48376;DHT22;34178;50.904;11.560;2023-08-06T13:09:09;30.20;96.60
48376;DHT22;34178;50.904;11.560;2023-08-06T13:11:35;30.40;94.50
48376;DHT22;34178;50.904;11.560;2023-08-06T13:14:11;30.30;94.80
48376;DHT22;34178;50.904;11.560;2023-08-06T13:16:39;29.90;93.70
48376;DHT22;34178;50.904;11.560;2023-08-06T13:19:06;29.20;92.60
48376;DHT22;34178;50.904;11.560;2023-08-06T13:24:08;27.50;93.70
48376;DHT22;34178;50.904;11.560;2023-08-06T13:26:34;26.90;94.50
48376;DHT22;34178;50.904;11.560;2023-08-06T13:29:00;26.50;94.90
48376;DHT22;34178;50.904;11.560;2023-08-06T13:31:27;26.20;95.90
48376;DHT22;34178;50.904;11.560;2023-08-06T13:33:54;26.10;95.90
48376;DHT22;34178;50.904;11.560;2023-08-06T13:36:21;25.80;96.50
48376;DHT22;34178;50.904;11.560;2023-08-06T13:38:47;25.20;97.20
48376;DHT22;34178;50.904;11.560;2023-08-06T13:41:13;24.90;97.00
48376;DHT22;34178;50.904;11.560;2023-08-06T13:43:39;24.50;96.80
48376;DHT22;34178;50.904;11.560;2023-08-06T13:46:05;24.10;97.80
48376;DHT22;34178;50.904;11.560;2023-08-06T13:48:30;23.70;98.20
48376;DHT22;34178;50.904;11.560;2023-08-06T13:50:56;23.20;99.00
48376;DHT22;34178;50.904;11.560;2023-08-06T13:53:22;22.90;99.50
48376;DHT22;34178;50.904;11.560;2023-08-06T13:55:47;22.50;99.90
48376;DHT22;34178;50.904;11.560;2023-08-06T13:58:13;21.60;99.90
48376;DHT22;34178;50.904;11.560;2023-08-06T14:00:40;21.30;99.90
48376;DHT22;34178;50.904;11.560;2023-08-06T14:03:06;21.10;99.90
48376;DHT22;34178;50.904;11.560;2023-08-06T14:05:32;20.80;99.90
48376;DHT22;34178;50.904;11.560;2023-08-06T14:07:57;20.40;99.90
48376;DHT22;34178;50.904;11.560;2023-08-06T14:10:23;20.20;99.90
48376;DHT22;34178;50.904;11.560;2023-08-06T14:12:49;20.30;99.90
48376;DHT22;34178;50.904;11.560;2023-08-06T14:15:15;20.30;99.90
48376;DHT22;34178;50.904;11.560;2023-08-06T14:17:40;20.10;99.90
48376;DHT22;34178;50.904;11.560;2023-08-06T14:20:06;20.00;99.90
48376;DHT22;34178;50.904;11.560;2023-08-06T14:22:33;19.90;99.90
48376;DHT22;34178;50.904;11.560;2023-08-06T14:24:59;19.80;99.90
48376;DHT22;34178;50.904;11.560;2023-08-06T14:27:25;19.90;99.90
48376;DHT22;34178;50.904;11.560;2023-08-06T14:29:51;19.80;99.90
48376;DHT22;34178;50.904;11.560;2023-08-06T14:32:16;19.80;99.90
48376;DHT22;34178;50.904;11.560;2023-08-06T14:34:44;19.50;99.90
48376;DHT22;34178;50.904;11.560;2023-08-06T14:37:10;19.10;99.90
48376;DHT22;34178;50.904;11.560;2023-08-06T14:39:35;19.00;99.90
48376;DHT22;34178;50.904;11.560;2023-08-06T14:42:01;18.90;99.90
48376;DHT22;34178;50.904;11.560;2023-08-06T14:44:27;19.10;99.90
48376;DHT22;34178;50.904;11.560;2023-08-06T14:46:53;19.30;99.90
48376;DHT22;34178;50.904;11.560;2023-08-06T14:49:19;19.50;99.90
48376;DHT22;34178;50.904;11.560;2023-08-06T14:51:45;19.70;99.90
48376;DHT22;34178;50.904;11.560;2023-08-06T14:54:11;20.10;99.90
48376;DHT22;34178;50.904;11.560;2023-08-06T14:56:36;20.70;99.90
48376;DHT22;34178;50.904;11.560;2023-08-06T14:59:02;21.30;99.90
48376;DHT22;34178;50.904;11.560;2023-08-06T15:01:28;21.40;99.90
48376;DHT22;34178;50.904;11.560;2023-08-06T15:03:54;21.90;99.90
48376;DHT22;34178;50.904;11.560;2023-08-06T15:06:19;24.00;99.90
48376;DHT22;34178;50.904;11.560;2023-08-06T15:08:45;27.00;99.90
48376;DHT22;34178;50.904;11.560;2023-08-06T15:11:13;28.60;97.80
48376;DHT22;34178;50.904;11.560;2023-08-06T15:13:39;28.60;96.90
48376;DHT22;34178;50.904;11.560;2023-08-06T15:16:05;28.00;95.90
48376;DHT22;34178;50.904;11.560;2023-08-06T15:18:31;27.10;96.80
48376;DHT22;34178;50.904;11.560;2023-08-06T15:20:56;26.40;97.80
48376;DHT22;34178;50.904;11.560;2023-08-06T15:23:23;26.90;97.70